Time;durP1;ratioP1;P1;durP2;ratioP2;P2;SDS_P1;SDS_P2;PMS_P1;PMS_P2;Temp;Humidity;BMP_temperature;BMP_pressure;BME280_temperature;BME280_humidity;BME280_pressure;Samples;Min_cycle;Max_cycle;Signal;HPM_P1;HPM_P2
2021/01/02 00:02:04;;;;;;;;;;;;;;;0.38;96.83;102079.88;5002621;28;19941;-94
2021/01/02 00:04:57;;;;;;;;;;;;;;;0.37;96.67;102073.03;4985711;28;19906;-95
2021/01/02 00:07:37;;;;;;;;;;;;;;;0.35;96.61;102072.22;4985714;28;19906;-95
2021/01/02 00:10:09;;;;;;;;;;;;;;;0.31;96.65;102075.75;4983146;28;19914;-95
2021/01/02 00:15:50;;;;;;;;;;;;;;;0.29;96.67;102078.38;5000840;28;20013;-96
2021/01/02 00:22:08;;;;;;;;;;;;;;;0.28;96.76;102071.50;4980702;28;19910;-95
2021/01/02 00:24:38;;;;;;;;;;;;;;;0.27;96.81;102072.41;4929489;29;19940;-96
2021/01/02 00:27:21;;;;;;;;;;;;;;;0.26;96.75;102082.78;4958180;29;19902;-95
2021/01/02 00:29:50;;;;;;;;;;;;;;;0.24;96.72;102079.38;4957427;29;19918;-96
2021/01/02 00:32:25;;;;;;;;;;;;;;;0.22;96.83;102083.75;4959488;29;20325;-96
2021/01/02 00:34:50;;;;;;;;;;;;;;;0.20;96.92;102091.53;4957756;29;20377;-96
2021/01/02 00:37:19;;;;;;;;;;;;;;;0.19;96.87;102089.84;4956069;29;19950;-96
2021/01/02 00:58:01;;;;;;;;;;;;;;;0.14;96.94;102099.41;4970282;28;19918;-96
2021/01/02 01:00:33;;;;;;;;;;;;;;;0.13;97.06;102099.47;4964039;28;20286;-96
2021/01/02 01:03:04;;;;;;;;;;;;;;;0.12;97.07;102108.94;4955612;29;19910;-95
2021/01/02 01:05:33;;;;;;;;;;;;;;;0.11;96.79;102101.22;4955980;29;19937;-96
2021/01/02 01:08:00;;;;;;;;;;;;;;;0.09;96.88;102097.84;4956681;29;20246;-96
2021/01/02 01:10:36;;;;;;;;;;;;;;;0.08;96.99;102101.31;5140648;23;20077;-96
2021/01/02 01:16:11;;;;;;;;;;;;;;;0.06;96.99;102101.34;4992335;28;19965;-96
2021/01/02 01:18:56;;;;;;;;;;;;;;;0.06;96.96;102098.78;4976331;28;19910;-96
2021/01/02 01:24:38;;;;;;;;;;;;;;;0.02;97.02;102097.16;4995216;28;19918;-95
2021/01/02 01:27:10;;;;;;;;;;;;;;;0.01;96.90;102107.53;4974770;28;19917;-95
2021/01/02 01:29:48;;;;;;;;;;;;;;;-0.02;97.10;102101.53;4973606;28;20635;-96
2021/01/02 01:32:35;;;;;;;;;;;;;;;;;;;;;
2021/01/02 01:35:02;;;;;;;;;;;;;;;-0.07;97.14;102103.38;4974186;28;20344;-96
2021/01/02 01:37:29;;;;;;;;;;;;;;;-0.10;96.96;102100.91;5012650;23;19906;-96
2021/01/02 01:40:00;;;;;;;;;;;;;;;-0.11;97.09;102106.94;4972867;28;20250;-96
2021/01/02 01:42:41;;;;;;;;;;;;;;;-0.13;97.12;102115.59;4974366;28;19938;-96
2021/01/02 01:45:16;;;;;;;;;;;;;;;-0.15;96.95;102114.81;4975420;28;20269;-96
2021/01/02 01:47:43;;;;;;;;;;;;;;;-0.18;97.02;102113.13;4975600;28;19934;-96
2021/01/02 01:50:32;;;;;;;;;;;;;;;-0.18;97.15;102120.84;5109758;23;20997;-96
2021/01/02 01:53:19;;;;;;;;;;;;;;;-0.19;97.11;102119.16;4977536;28;19920;-96
2021/01/02 01:56:22;;;;;;;;;;;;;;;;;;;;;
2021/01/02 02:04:31;;;;;;;;;;;;;;;-0.18;97.09;102132.91;5773593;23;19910;-96
2021/01/02 02:56:10;;;;;;;;;;;;;;;-0.28;97.30;102131.44;4973437;23;19918;-96
2021/01/02 02:58:44;;;;;;;;;;;;;;;-0.29;97.14;102127.19;4988342;23;19923;-96
2021/01/02 03:01:11;;;;;;;;;;;;;;;-0.28;97.28;102126.28;4977854;28;19918;-96
2021/01/02 03:03:38;;;;;;;;;;;;;;;-0.29;97.36;102125.44;4977930;28;19917;-96
2021/01/02 03:06:06;;;;;;;;;;;;;;;-0.30;97.40;102123.75;4977910;28;19921;-96
2021/01/02 03:08:49;;;;;;;;;;;;;;;;;;;;;
2021/01/02 03:11:25;;;;;;;;;;;;;;;-0.32;97.17;102123.78;4978675;28;19902;-96
2021/01/02 03:13:59;;;;;;;;;;;;;;;-0.31;97.48;102122.06;4984340;28;19938;-96
2021/01/02 03:16:26;;;;;;;;;;;;;;;-0.32;97.45;102121.22;4977148;28;20463;-96
2021/01/02 03:18:55;;;;;;;;;;;;;;;-0.31;97.28;102119.47;4976590;28;19917;-96
2021/01/02 03:21:22;;;;;;;;;;;;;;;-0.33;97.30;102114.31;4977216;28;20469;-96
2021/01/02 03:23:49;;;;;;;;;;;;;;;-0.31;97.28;102116.91;4977675;28;19917;-96
2021/01/02 03:26:19;;;;;;;;;;;;;;;-0.31;97.39;102111.75;4978706;28;19916;-96
2021/01/02 03:28:52;;;;;;;;;;;;;;;-0.29;97.20;102111.69;4979017;28;19910;-96
2021/01/02 03:34:03;;;;;;;;;;;;;;;-0.29;97.24;102096.22;4981419;23;19925;-96
2021/01/02 03:36:30;;;;;;;;;;;;;;;-0.28;97.32;102105.66;4940683;29;19915;-96
2021/01/02 03:45:05;;;;;;;;;;;;;;;-0.26;97.39;102103.88;4938004;29;19918;-96
2021/01/02 03:47:33;;;;;;;;;;;;;;;-0.24;97.40;102107.28;4922826;29;19899;-96
2021/01/02 03:50:06;;;;;;;;;;;;;;;-0.22;97.36;102097.75;4944502;29;19923;-96
2021/01/02 03:52:36;;;;;;;;;;;;;;;-0.19;97.49;102095.09;4919594;29;19918;-96
2021/01/02 03:55:02;;;;;;;;;;;;;;;-0.18;97.41;102096.78;4917863;29;20321;-96
2021/01/02 03:57:28;;;;;;;;;;;;;;;-0.17;97.45;102099.34;4955576;29;19914;-95
2021/01/02 03:59:56;;;;;;;;;;;;;;;-0.15;97.55;102096.75;4957768;29;20269;-96
2021/01/02 04:02:25;;;;;;;;;;;;;;;-0.13;97.45;102098.41;4956396;29;20369;-96
2021/01/02 04:04:51;;;;;;;;;;;;;;;-0.09;97.60;102099.16;4956178;29;20247;-95
2021/01/02 04:07:17;;;;;;;;;;;;;;;-0.09;97.37;102092.28;4956200;29;19933;-95
2021/01/02 04:09:43;;;;;;;;;;;;;;;-0.04;97.46;102093.00;4957173;29;19941;-96
2021/01/02 04:12:10;;;;;;;;;;;;;;;-0.01;97.45;102098.06;4953737;29;20374;-96
2021/01/02 04:14:36;;;;;;;;;;;;;;;0.02;97.53;102091.16;4953520;29;19911;-95
2021/01/02 04:17:02;;;;;;;;;;;;;;;0.04;97.39;102087.66;4955875;29;19953;-96
2021/01/02 04:19:28;;;;;;;;;;;;;;;0.05;97.39;102093.66;4954723;29;19922;-96
2021/01/02 04:21:55;;;;;;;;;;;;;;;0.07;97.37;102090.16;4956013;29;19998;-96
2021/01/02 04:24:24;;;;;;;;;;;;;;;0.10;97.29;102078.91;4966450;28;19903;-95
2021/01/02 04:29:54;;;;;;;;;;;;;;;0.17;97.43;102089.03;4973432;29;19934;-96
2021/01/02 04:32:21;;;;;;;;;;;;;;;0.22;97.42;102084.59;4954462;29;20380;-95
2021/01/02 04:34:47;;;;;;;;;;;;;;;0.28;97.26;102094.75;4954326;29;20328;-93
2021/01/02 04:37:14;;;;;;;;;;;;;;;0.32;97.39;102092.94;4955149;29;19954;-94
2021/01/02 04:39:40;;;;;;;;;;;;;;;0.36;97.27;102086.81;4952321;29;19965;-95
2021/01/02 04:42:07;;;;;;;;;;;;;;;0.41;97.29;102081.50;4952413;29;19910;-96
2021/01/02 04:44:34;;;;;;;;;;;;;;;0.45;97.28;102081.38;4951600;29;19949;-96
2021/01/02 04:47:02;;;;;;;;;;;;;;;0.52;97.41;102075.19;4954838;29;19915;-96
2021/01/02 04:49:28;;;;;;;;;;;;;;;0.58;97.52;102072.41;4957111;29;20243;-95
2021/01/02 04:52:01;;;;;;;;;;;;;;;0.63;97.41;102076.59;4957412;29;19934;-95
2021/01/02 04:54:36;;;;;;;;;;;;;;;0.67;97.38;102076.50;4957905;29;19910;-96
2021/01/02 04:57:01;;;;;;;;;;;;;;;0.71;97.34;102072.06;4957431;29;19911;-96
2021/01/02 04:59:29;;;;;;;;;;;;;;;0.74;97.46;102066.81;4958272;29;20005;-96
2021/01/02 05:01:58;;;;;;;;;;;;;;;0.78;97.31;102064.09;4957749;29;20006;-95
2021/01/02 05:04:35;;;;;;;;;;;;;;;;;;;;;
2021/01/02 05:07:02;;;;;;;;;;;;;;;0.86;97.17;102072.47;4976172;29;19922;-96
2021/01/02 05:09:28;;;;;;;;;;;;;;;0.92;97.29;102075.75;4954950;29;20300;-96
2021/01/02 05:11:54;;;;;;;;;;;;;;;0.94;97.24;102063.66;4955425;29;19911;-95
2021/01/02 05:14:20;;;;;;;;;;;;;;;0.97;97.21;102061.00;4956853;29;19917;-96
2021/01/02 05:16:46;;;;;;;;;;;;;;;1.00;97.07;102069.50;4955234;29;19941;-95
2021/01/02 05:19:15;;;;;;;;;;;;;;;1.02;97.13;102064.28;4956217;29;20266;-96
2021/01/02 05:21:48;;;;;;;;;;;;;;;1.05;97.06;102061.59;4955659;29;19911;-95
2021/01/02 05:24:15;;;;;;;;;;;;;;;1.08;97.18;102054.59;4957477;29;19910;-96
2021/01/02 05:26:44;;;;;;;;;;;;;;;1.10;96.99;102050.22;4956611;29;19917;-96
2021/01/02 05:29:22;;;;;;;;;;;;;;;1.11;96.94;102059.69;4958807;29;20321;-96
2021/01/02 05:31:50;;;;;;;;;;;;;;;1.12;96.88;102053.63;4957974;28;19910;-96
2021/01/02 05:34:17;;;;;;;;;;;;;;;1.13;97.05;102050.16;4959436;29;19914;-96
2021/01/02 05:36:58;;;;;;;;;;;;;;;1.16;96.95;102038.88;4958872;29;19910;-96
2021/01/02 05:39:34;;;;;;;;;;;;;;;1.15;96.77;102045.78;4957681;29;20401;-96
2021/01/02 05:42:00;;;;;;;;;;;;;;;1.19;96.77;102041.34;4955157;29;20289;-96
2021/01/02 05:44:31;;;;;;;;;;;;;;;1.22;96.93;102050.75;4953432;29;20313;-96
2021/01/02 05:46:57;;;;;;;;;;;;;;;1.24;96.64;102042.03;4955391;29;19910;-96
2021/01/02 05:49:39;;;;;;;;;;;;;;;1.25;96.66;102033.41;4953048;29;19910;-95
2021/01/02 05:52:10;;;;;;;;;;;;;;;1.28;96.73;102022.13;4955641;29;19915;-96
2021/01/02 05:54:40;;;;;;;;;;;;;;;1.27;96.57;102026.47;4957475;29;19911;-95
2021/01/02 05:57:10;;;;;;;;;;;;;;;1.30;96.56;102026.38;4980513;28;19935;-96
2021/01/02 05:59:40;;;;;;;;;;;;;;;1.32;96.64;102023.72;4974958;28;19970;-94
2021/01/02 06:02:21;;;;;;;;;;;;;;;1.32;96.35;102018.56;4951762;29;19894;-95
2021/01/02 06:05:13;;;;;;;;;;;;;;;1.34;96.51;102016.75;4952980;29;19914;-96
2021/01/02 06:07:48;;;;;;;;;;;;;;;1.38;96.50;102008.00;4950701;29;20253;-96
2021/01/02 06:10:15;;;;;;;;;;;;;;;1.41;96.51;102015.66;4954695;29;20302;-96
2021/01/02 06:12:45;;;;;;;;;;;;;;;1.43;96.37;101995.78;4955632;29;19934;-96
2021/01/02 06:15:35;;;;;;;;;;;;;;;1.42;96.44;102010.47;4953439;29;19922;-95
2021/01/02 06:18:15;;;;;;;;;;;;;;;;;;;;;
2021/01/02 06:23:47;;;;;;;;;;;;;;;1.52;96.28;102013.56;4971887;29;19917;-96
2021/01/02 06:26:21;;;;;;;;;;;;;;;1.56;96.29;102015.16;4970844;29;19934;-96
2021/01/02 06:29:11;;;;;;;;;;;;;;;1.59;96.43;102011.66;4951493;29;20098;-96
2021/01/02 06:38:08;;;;;;;;;;;;;;;1.58;96.34;102022.84;5085644;23;19951;-95
2021/01/02 06:40:45;;;;;;;;;;;;;;;1.58;96.00;102009.94;4968751;28;20287;-95
2021/01/02 06:43:24;;;;;;;;;;;;;;;1.57;96.19;102019.44;4967261;28;19934;-95
2021/01/02 06:45:57;;;;;;;;;;;;;;;1.56;95.97;102015.16;4970007;29;19906;-94
2021/01/02 06:51:22;;;;;;;;;;;;;;;1.55;96.02;102008.28;5030764;23;19910;-94
2021/01/02 06:53:56;;;;;;;;;;;;;;;1.55;96.06;102015.22;4979414;28;19916;-94
2021/01/02 06:56:40;;;;;;;;;;;;;;;;;;;;;
2021/01/02 06:59:24;;;;;;;;;;;;;;;1.52;96.06;102008.41;4977397;28;19915;-93
2021/01/02 07:01:51;;;;;;;;;;;;;;;1.52;95.83;102000.66;4962011;28;19914;-94
2021/01/02 07:04:44;;;;;;;;;;;;;;;;;;;;;
2021/01/02 07:07:43;;;;;;;;;;;;;;;1.51;96.11;101998.97;4977938;28;19914;-93
2021/01/02 07:10:23;;;;;;;;;;;;;;;1.51;96.05;102001.53;4958178;28;19915;-93
2021/01/02 07:13:09;;;;;;;;;;;;;;;1.52;96.20;102003.22;4978080;28;19906;-94
2021/01/02 07:15:42;;;;;;;;;;;;;;;1.53;96.12;102015.25;4974409;29;19914;-94
2021/01/02 07:18:29;;;;;;;;;;;;;;;1.52;96.05;102018.75;4956454;29;20380;-93
2021/01/02 07:20:56;;;;;;;;;;;;;;;1.52;96.25;102018.75;4951381;29;19910;-94
2021/01/02 07:23:26;;;;;;;;;;;;;;;1.50;96.22;102018.81;4950802;29;19910;-94
2021/01/02 07:26:13;;;;;;;;;;;;;;;1.50;96.27;102005.88;4954439;29;19911;-94
2021/01/02 07:28:52;;;;;;;;;;;;;;;1.49;96.24;102008.50;4970361;29;19910;-95
2021/01/02 07:31:22;;;;;;;;;;;;;;;1.46;96.11;102009.47;4954610;29;19934;-95
2021/01/02 07:33:50;;;;;;;;;;;;;;;1.47;96.04;102010.31;4939393;29;19915;-95
2021/01/02 07:36:34;;;;;;;;;;;;;;;1.46;96.08;102001.72;4975724;29;19918;-94
2021/01/02 07:39:01;;;;;;;;;;;;;;;1.44;96.31;101993.16;4952489;29;20445;-94
2021/01/02 07:41:32;;;;;;;;;;;;;;;1.43;96.20;101993.22;4956038;29;19898;-94
2021/01/02 07:44:11;;;;;;;;;;;;;;;1.41;96.39;101997.56;4978872;28;19898;-94
2021/01/02 07:46:42;;;;;;;;;;;;;;;1.40;96.47;102006.22;4961531;28;19914;-93
2021/01/02 07:49:09;;;;;;;;;;;;;;;1.37;96.35;102003.72;4959685;29;20262;-94
2021/01/02 07:51:38;;;;;;;;;;;;;;;1.36;96.50;102009.78;4967884;29;20259;-94
2021/01/02 07:54:04;;;;;;;;;;;;;;;1.35;96.47;102021.03;4946515;29;19934;-96
2021/01/02 07:56:34;;;;;;;;;;;;;;;1.36;96.50;102027.91;4951029;29;19910;-95
2021/01/02 07:59:19;;;;;;;;;;;;;;;1.36;96.63;102025.31;4952670;29;19945;-95
2021/01/02 08:01:51;;;;;;;;;;;;;;;1.38;96.68;102036.44;4956055;29;19910;-95
2021/01/02 08:04:18;;;;;;;;;;;;;;;1.38;96.68;102039.88;4957389;29;19914;-95
2021/01/02 08:06:58;;;;;;;;;;;;;;;1.40;96.55;102039.81;4986771;23;19985;-94
2021/01/02 08:09:29;;;;;;;;;;;;;;;1.41;96.84;102037.19;4961793;29;19914;-94
2021/01/02 08:12:04;;;;;;;;;;;;;;;1.42;96.61;102051.81;4956043;29;19910;-95
2021/01/02 08:14:32;;;;;;;;;;;;;;;1.44;96.84;102049.19;4955760;29;19926;-95
2021/01/02 08:17:10;;;;;;;;;;;;;;;1.47;96.82;102047.34;4941253;29;19932;-94
2021/01/02 08:19:56;;;;;;;;;;;;;;;1.49;96.70;102034.38;4959617;29;20440;-95
2021/01/02 08:22:27;;;;;;;;;;;;;;;1.50;96.92;102036.06;4942982;29;19915;-95
2021/01/02 08:24:58;;;;;;;;;;;;;;;1.51;96.95;102040.34;4940048;29;19911;-94
2021/01/02 08:27:25;;;;;;;;;;;;;;;1.53;96.72;102043.72;4934318;29;20445;-95
2021/01/02 08:29:55;;;;;;;;;;;;;;;1.55;96.85;102047.09;4933129;29;20370;-95
2021/01/02 08:32:25;;;;;;;;;;;;;;;1.57;96.96;102034.94;4934226;29;19910;-95
2021/01/02 08:34:52;;;;;;;;;;;;;;;1.59;96.83;102042.69;4941999;28;19907;-96
2021/01/02 08:37:20;;;;;;;;;;;;;;;1.58;96.77;102044.44;4943508;29;19974;-95
2021/01/02 08:39:52;;;;;;;;;;;;;;;1.59;96.84;102037.50;4937045;29;19951;-94
2021/01/02 08:42:18;;;;;;;;;;;;;;;1.60;96.85;102034.88;4937171;29;20428;-95
2021/01/02 08:44:47;;;;;;;;;;;;;;;1.62;96.64;102038.25;4937581;29;19938;-95
2021/01/02 08:47:25;;;;;;;;;;;;;;;1.62;96.93;102033.06;4930922;29;20419;-96
2021/01/02 08:49:53;;;;;;;;;;;;;;;1.61;96.87;102036.56;4930597;29;20414;-96
2021/01/02 08:52:24;;;;;;;;;;;;;;;1.63;96.87;102039.09;4943237;29;20346;-96
2021/01/02 08:54:54;;;;;;;;;;;;;;;1.63;96.97;102052.88;4950463;29;19917;-96
2021/01/02 08:57:23;;;;;;;;;;;;;;;1.63;97.01;102058.03;4949742;29;20322;-96
2021/01/02 08:59:51;;;;;;;;;;;;;;;1.66;96.93;102059.69;4950565;29;20350;-96
2021/01/02 09:02:19;;;;;;;;;;;;;;;1.66;96.99;102063.09;4950559;29;19913;-95
2021/01/02 09:05:21;;;;;;;;;;;;;;;1.68;97.01;102056.13;4966984;29;20258;-96
2021/01/02 09:08:13;;;;;;;;;;;;;;;1.68;96.84;102060.47;4870675;29;20321;-94
2021/01/02 09:10:45;;;;;;;;;;;;;;;1.70;96.96;102062.09;4947579;29;19910;-96
2021/01/02 09:13:16;;;;;;;;;;;;;;;1.70;96.99;102063.84;4964964;29;20314;-96
2021/01/02 09:15:42;;;;;;;;;;;;;;;1.73;97.00;102055.97;4950471;29;19940;-96
2021/01/02 09:21:17;;;;;;;;;;;;;;;1.76;96.94;102067.09;4970433;29;19933;-96
2021/01/02 09:24:10;;;;;;;;;;;;;;;1.79;96.78;102060.97;4969186;29;20394;-96
2021/01/02 09:26:52;;;;;;;;;;;;;;;1.80;96.89;102063.50;4969416;29;20331;-96
2021/01/02 09:35:21;;;;;;;;;;;;;;;1.84;96.77;102066.81;5205594;23;19918;-96
2021/01/02 09:41:27;;;;;;;;;;;;;;;1.87;96.77;102065.88;4971157;29;19921;-96
2021/01/02 09:43:56;;;;;;;;;;;;;;;1.88;96.98;102058.06;4957343;29;20354;-96
2021/01/02 09:46:26;;;;;;;;;;;;;;;1.88;96.81;102060.66;4983423;23;19918;-96
2021/01/02 09:48:55;;;;;;;;;;;;;;;1.89;96.96;102066.66;4950833;29;19934;-96
2021/01/02 09:56:55;;;;;;;;;;;;;;;1.92;96.75;102071.75;5746684;23;19918;-96
2021/01/02 09:59:48;;;;;;;;;;;;;;;1.96;96.87;102068.16;4969409;29;19922;-96
2021/01/02 10:04:55;;;;;;;;;;;;;;;2.01;96.66;102061.94;5523358;23;19930;-96
2021/01/02 10:11:11;;;;;;;;;;;;;;;2.11;96.53;102070.22;4967384;29;20341;-95
2021/01/02 10:13:43;;;;;;;;;;;;;;;2.18;96.62;102063.94;4950053;29;19914;-96
2021/01/02 10:16:11;;;;;;;;;;;;;;;2.22;96.51;102068.13;4948300;29;19910;-96
2021/01/02 10:18:38;;;;;;;;;;;;;;;2.25;96.46;102070.59;4949028;29;20002;-96
2021/01/02 10:21:05;;;;;;;;;;;;;;;2.28;96.29;102073.06;4946820;29;20310;-96
2021/01/02 10:23:32;;;;;;;;;;;;;;;2.29;96.34;102061.81;4944388;29;20380;-96
2021/01/02 10:26:00;;;;;;;;;;;;;;;2.32;96.31;102059.13;4946498;29;20301;-95
2021/01/02 10:28:26;;;;;;;;;;;;;;;2.34;96.44;102062.50;4948236;29;20293;-95
2021/01/02 10:30:53;;;;;;;;;;;;;;;2.39;96.27;102060.59;4950229;29;20026;-94
2021/01/02 10:36:36;;;;;;;;;;;;;;;2.47;96.11;102069.84;4962279;29;19913;-96
2021/01/02 10:39:09;;;;;;;;;;;;;;;2.49;96.11;102078.38;4969466;23;19919;-96
2021/01/02 10:47:23;;;;;;;;;;;;;;;2.55;96.15;102088.56;5548593;23;19919;-96
2021/01/02 11:15:50;;;;;;;;;;;;;;;2.90;95.91;102080.31;5089770;23;19915;-96
2021/01/02 11:18:19;;;;;;;;;;;;;;;2.96;95.90;102084.41;4957834;29;19934;-96
2021/01/02 11:20:51;;;;;;;;;;;;;;;3.02;95.88;102081.63;4959818;29;19910;-96
2021/01/02 11:23:21;;;;;;;;;;;;;;;3.07;95.93;102071.06;5200310;23;20716;-96
2021/01/02 11:26:07;;;;;;;;;;;;;;;3.11;95.90;102070.88;5161379;23;19919;-96
2021/01/02 11:34:35;;;;;;;;;;;;;;;3.30;95.98;102068.41;5074568;23;19910;-96
2021/01/02 11:37:09;;;;;;;;;;;;;;;3.36;95.80;102067.34;4957871;29;19903;-96
2021/01/02 11:39:51;;;;;;;;;;;;;;;3.38;95.78;102061.19;4964354;28;19906;-96
2021/01/02 11:48:54;;;;;;;;;;;;;;;3.26;95.96;102067.69;4905595;29;20421;-96
2021/01/02 11:53:59;;;;;;;;;;;;;;;3.14;95.86;102056.94;4982389;23;20376;-96
2021/01/02 11:56:30;;;;;;;;;;;;;;;3.09;95.96;102049.34;4959159;29;20388;-96
2021/01/02 11:59:05;;;;;;;;;;;;;;;3.07;95.83;102052.91;5009263;23;19918;-96
2021/01/02 12:04:52;;;;;;;;;;;;;;;3.05;96.10;102058.16;5025436;23;19943;-96
2021/01/02 12:07:21;;;;;;;;;;;;;;;3.08;96.15;102054.59;4945748;29;19942;-96
2021/01/02 12:09:48;;;;;;;;;;;;;;;3.15;95.95;102053.44;4924916;29;19953;-96
2021/01/02 12:12:15;;;;;;;;;;;;;;;3.20;96.13;102048.94;5026929;23;19915;-96
2021/01/02 12:20:02;;;;;;;;;;;;;;;3.36;96.10;102039.66;4976434;28;19938;-96
2021/01/02 12:22:33;;;;;;;;;;;;;;;3.42;95.96;102042.00;4960261;29;19973;-96
2021/01/02 12:25:11;;;;;;;;;;;;;;;3.46;95.93;102043.56;4975642;29;19990;-96
2021/01/02 12:27:42;;;;;;;;;;;;;;;3.48;95.96;102044.38;4983106;23;20388;-96
2021/01/02 12:33:56;;;;;;;;;;;;;;;3.58;95.99;102047.41;4934330;29;19921;-96
2021/01/02 12:36:42;;;;;;;;;;;;;;;3.63;96.01;102045.50;4918472;29;19919;-96
2021/01/02 12:39:10;;;;;;;;;;;;;;;3.68;95.96;102045.28;4918980;29;19911;-95
2021/01/02 12:41:41;;;;;;;;;;;;;;;3.72;95.93;102041.66;5094226;23;19918;-96
2021/01/02 12:52:10;;;;;;;;;;;;;;;3.84;95.87;102042.00;4976251;28;19910;-95
2021/01/02 12:54:51;;;;;;;;;;;;;;;3.85;95.71;102027.25;5182862;23;20193;-96
2021/01/02 12:57:56;;;;;;;;;;;;;;;3.88;95.79;102029.72;4943694;29;19918;-96
2021/01/02 13:03:48;;;;;;;;;;;;;;;3.89;95.76;102037.44;4956507;29;19949;-96
2021/01/02 13:06:16;;;;;;;;;;;;;;;3.90;95.63;102041.72;4941898;29;19943;-96
2021/01/02 13:08:48;;;;;;;;;;;;;;;3.92;95.72;102036.47;4943173;29;20394;-96
2021/01/02 13:11:23;;;;;;;;;;;;;;;3.95;95.61;102046.75;4941173;29;20373;-96
2021/01/02 13:17:27;;;;;;;;;;;;;;;;;;;;;
2021/01/02 13:20:00;;;;;;;;;;;;;;;3.90;95.67;102039.13;4978445;28;19910;-96
2021/01/02 13:38:28;;;;;;;;;;;;;;;3.53;95.80;102044.16;4907020;23;19946;-96
2021/01/02 13:49:37;;;;;;;;;;;;;;;3.65;95.68;102040.22;4885653;29;19918;-95
2021/01/02 13:52:05;;;;;;;;;;;;;;;3.72;95.83;102039.91;4954124;28;20219;-96
2021/01/02 13:54:32;;;;;;;;;;;;;;;3.80;95.86;102040.44;4949716;29;20324;-96
2021/01/02 14:00:04;;;;;;;;;;;;;;;3.88;95.93;102042.69;4967156;29;20021;-96
2021/01/02 14:02:32;;;;;;;;;;;;;;;3.89;95.87;102046.97;4953203;29;19910;-96
2021/01/02 14:04:59;;;;;;;;;;;;;;;3.88;95.90;102053.09;4934103;29;19922;-96
2021/01/02 14:07:25;;;;;;;;;;;;;;;3.86;95.69;102037.56;4949595;29;19946;-96
2021/01/02 14:09:52;;;;;;;;;;;;;;;3.83;95.88;102047.25;4950276;29;19910;-96
2021/01/02 14:12:22;;;;;;;;;;;;;;;3.76;95.71;102041.47;4966743;29;20302;-96
2021/01/02 14:14:50;;;;;;;;;;;;;;;3.72;95.70;102044.25;4949631;29;20326;-96
2021/01/02 14:17:16;;;;;;;;;;;;;;;3.64;95.48;102051.53;4949505;29;20318;-95
2021/01/02 14:22:45;;;;;;;;;;;;;;;3.60;95.59;102051.63;4968948;29;19917;-96
2021/01/02 14:25:13;;;;;;;;;;;;;;;3.59;95.63;102051.69;4953929;29;19938;-95
2021/01/02 14:27:40;;;;;;;;;;;;;;;3.52;95.58;102052.84;4960078;29;19978;-95
2021/01/02 14:30:06;;;;;;;;;;;;;;;3.49;95.40;102053.00;4954627;29;19910;-96
2021/01/02 14:32:33;;;;;;;;;;;;;;;3.47;95.52;102054.78;4954135;29;19931;-96
2021/01/02 14:38:05;;;;;;;;;;;;;;;3.42;95.20;102057.56;4973680;29;19917;-96
2021/01/02 14:43:37;;;;;;;;;;;;;;;3.42;95.28;102057.56;4966804;29;19925;-96
2021/01/02 14:46:04;;;;;;;;;;;;;;;3.39;95.27;102060.28;4951182;29;19978;-94
2021/01/02 14:48:30;;;;;;;;;;;;;;;3.39;95.14;102065.47;4951069;29;20277;-96
2021/01/02 14:50:58;;;;;;;;;;;;;;;3.36;95.19;102060.41;4950871;29;20258;-95
2021/01/02 14:53:26;;;;;;;;;;;;;;;3.37;95.01;102059.50;4953612;29;19928;-96
2021/01/02 14:55:53;;;;;;;;;;;;;;;3.40;95.16;102059.38;4954888;29;20385;-96
2021/01/02 14:58:19;;;;;;;;;;;;;;;3.39;95.05;102060.28;4953964;29;19910;-96
2021/01/02 15:03:56;;;;;;;;;;;;;;;3.40;94.92;102066.31;5063160;23;19994;-96
2021/01/02 15:06:23;;;;;;;;;;;;;;;3.37;95.01;102061.25;4955797;29;19977;-96
2021/01/02 15:08:49;;;;;;;;;;;;;;;3.37;94.96;102066.44;4960513;29;19993;-95
2021/01/02 15:11:28;;;;;;;;;;;;;;;3.37;94.84;102058.66;4959526;29;19970;-96
2021/01/02 15:13:57;;;;;;;;;;;;;;;3.34;94.77;102067.41;4944064;29;20327;-96
2021/01/02 15:16:27;;;;;;;;;;;;;;;3.34;94.95;102064.81;4956373;29;19965;-96
2021/01/02 15:19:08;;;;;;;;;;;;;;;3.34;94.92;102076.94;4955385;29;20338;-96
2021/01/02 15:21:37;;;;;;;;;;;;;;;3.30;94.83;102074.44;4960663;28;19903;-96
2021/01/02 15:24:05;;;;;;;;;;;;;;;3.30;94.83;102073.59;4960251;29;19914;-96
2021/01/02 15:26:33;;;;;;;;;;;;;;;3.27;94.70;102076.31;4957291;29;20459;-96
2021/01/02 15:29:06;;;;;;;;;;;;;;;3.25;94.67;102076.38;4958280;29;19910;-96
2021/01/02 15:31:36;;;;;;;;;;;;;;;3.24;94.77;102073.84;4940224;29;19938;-95
2021/01/02 15:36:52;;;;;;;;;;;;;;;3.25;94.65;102078.13;4990408;23;19923;-96
2021/01/02 15:39:29;;;;;;;;;;;;;;;3.24;94.69;102081.63;4973279;23;19918;-96
2021/01/02 15:41:58;;;;;;;;;;;;;;;3.22;94.61;102083.44;4970533;28;20413;-96
2021/01/02 15:44:33;;;;;;;;;;;;;;;3.20;94.72;102085.25;4974566;29;19930;-96
2021/01/02 15:50:06;;;;;;;;;;;;;;;3.15;94.61;102084.56;4979054;28;19949;-96
2021/01/02 15:58:45;;;;;;;;;;;;;;;3.09;94.53;102090.84;4899374;29;19936;-96
2021/01/02 16:01:12;;;;;;;;;;;;;;;3.07;94.49;102091.81;4884655;29;20407;-96
2021/01/02 16:03:41;;;;;;;;;;;;;;;3.04;94.47;102097.09;4883509;29;19908;-96
2021/01/02 16:06:12;;;;;;;;;;;;;;;3.03;94.49;102090.25;4897617;29;19983;-96
2021/01/02 16:08:39;;;;;;;;;;;;;;;3.00;94.59;102099.81;4981186;23;19990;-95
2021/01/02 16:11:05;;;;;;;;;;;;;;;2.95;94.42;102096.53;4960935;28;19898;-96
2021/01/02 16:13:38;;;;;;;;;;;;;;;2.94;94.74;102102.63;5038906;23;19941;-96
2021/01/02 16:16:07;;;;;;;;;;;;;;;2.92;94.47;102090.63;4963296;28;19906;-96
2021/01/02 16:18:34;;;;;;;;;;;;;;;2.91;94.51;102099.31;4965928;29;19968;-94
2021/01/02 16:21:02;;;;;;;;;;;;;;;2.86;94.50;102096.91;4965685;28;19907;-95
2021/01/02 16:23:28;;;;;;;;;;;;;;;2.85;94.54;102100.41;4966079;28;19906;-94
2021/01/02 16:26:16;;;;;;;;;;;;;;;2.82;94.69;102104.81;4965949;28;19926;-96
2021/01/02 16:28:43;;;;;;;;;;;;;;;2.80;94.53;102101.44;4964251;29;19917;-94
2021/01/02 16:31:10;;;;;;;;;;;;;;;2.78;94.67;102100.66;4962940;28;19914;-94
2021/01/02 16:33:37;;;;;;;;;;;;;;;2.74;94.33;102105.13;4961671;29;19910;-93
2021/01/02 16:36:03;;;;;;;;;;;;;;;2.70;94.52;102111.31;4964778;29;19906;-94
2021/01/02 16:38:32;;;;;;;;;;;;;;;2.68;94.38;102111.38;4962487;29;19910;-95
2021/01/02 16:40:59;;;;;;;;;;;;;;;2.65;94.63;102115.78;4961547;29;20393;-95
2021/01/02 16:43:27;;;;;;;;;;;;;;;2.63;94.58;102118.44;4961657;29;19902;-94
2021/01/02 16:45:54;;;;;;;;;;;;;;;2.60;94.52;102121.16;4959759;29;20401;-94
2021/01/02 16:48:21;;;;;;;;;;;;;;;2.57;94.60;102121.25;4960130;29;19910;-95
2021/01/02 16:50:48;;;;;;;;;;;;;;;2.55;94.72;102125.66;4961892;28;19970;-94
2021/01/02 16:53:15;;;;;;;;;;;;;;;2.54;94.65;102128.31;4965290;28;19906;-94
2021/01/02 16:55:42;;;;;;;;;;;;;;;2.52;94.76;102130.91;4962260;29;19934;-95
2021/01/02 17:01:19;;;;;;;;;;;;;;;2.44;94.68;102138.13;4978955;28;20425;-94
2021/01/02 17:03:52;;;;;;;;;;;;;;;2.38;94.60;102138.34;4959076;29;19911;-95
2021/01/02 17:06:24;;;;;;;;;;;;;;;2.35;94.75;102141.88;5018735;23;19906;-93
2021/01/02 17:08:53;;;;;;;;;;;;;;;2.31;94.79;102142.88;4935666;29;20315;-94
2021/01/02 17:11:27;;;;;;;;;;;;;;;2.30;94.64;102150.69;4920360;29;19934;-94
2021/01/02 17:13:55;;;;;;;;;;;;;;;2.23;94.58;102152.66;4936873;29;19914;-95
2021/01/02 17:16:23;;;;;;;;;;;;;;;2.20;94.62;102154.47;4936313;29;19911;-95
2021/01/02 17:18:53;;;;;;;;;;;;;;;2.16;94.57;102158.06;4962700;23;19930;-95
2021/01/02 17:21:30;;;;;;;;;;;;;;;2.13;94.84;102164.19;4953885;29;20278;-96
2021/01/02 17:23:56;;;;;;;;;;;;;;;2.08;94.93;102172.13;4937601;29;20263;-96
2021/01/02 17:26:27;;;;;;;;;;;;;;;2.05;94.80;102172.22;4935756;29;19910;-96
2021/01/02 17:28:56;;;;;;;;;;;;;;;2.05;94.91;102176.53;4941166;29;19913;-95
2021/01/02 17:34:32;;;;;;;;;;;;;;;1.98;94.96;102182.81;4898601;29;19918;-96
2021/01/02 17:36:59;;;;;;;;;;;;;;;1.95;94.97;102181.19;4955390;29;19926;-96
2021/01/02 17:39:27;;;;;;;;;;;;;;;1.95;94.89;102188.09;4939813;29;19917;-96
2021/01/02 17:41:57;;;;;;;;;;;;;;;1.91;94.81;102187.34;4942394;29;19978;-94
2021/01/02 17:44:24;;;;;;;;;;;;;;;1.90;94.98;102185.66;4941037;29;19911;-93
2021/01/02 17:46:50;;;;;;;;;;;;;;;1.86;95.00;102186.63;4938273;29;19911;-95
2021/01/02 17:49:18;;;;;;;;;;;;;;;1.86;94.96;102189.22;4938774;29;19911;-96